Other Surface Observations
Issued by NWS Great Falls, MT

Home | Current Version | Previous Version | Text Only | Print | Product List | Glossary On
Versions: 1 2 3 4 5 6 7 8 9 10 11 12 13 14 15 16 17 18 19 20 21 22 23 24 25 26 27 28 29 30 31 32 33 34 35 36 37 38 39 40 41 42 43 44 45 46 47 48 49 50
305
SXUS55 KTFX 081444
OSOTFX
AREA AWOS OBSERVATIONS
NATIONAL WEATHER SERVICE GREAT FALLS MT
0744 AM MST MON FEB 08 2016

METAR KPWD 081445Z AUTO 00000KT 10SM M07/M09 A3036 RMK PLENTYWOOD
METAR KPO1 081445Z AUTO 24003KT 10SM M05/M08 A3040 RMK POPLAR
METAR K1S3 081445Z AUTO 00000KT 10SM M05/M10 A3043 RMK FORSYTH
METAR KS71 081445Z AUTO 00000KT 10SM M08/M10 A3040 RMK CHINOOK
METAR K38S 081445Z AUTO 00000KT 10SM M03/M04 A3060 RMK DEER LODGE
METAR K3U3 081445Z AUTO 00000KT 10SM M02/M06 A3059 RMK ANACONDA
METAR K6S5 081445Z AUTO 14003KT 10SM 00/M04 A3062 RMK HAMILTON
METAR KS59 081445Z AUTO 13003KT 10SM M01/M03 A3066 RMK LIBBY



USA.gov is the U.S. government's official web portal to all federal, state and local government web resources and services.